Time;durP1;ratioP1;P1;durP2;ratioP2;P2;SDS_P1;SDS_P2;PMS_P1;PMS_P2;Temp;Humidity;BMP_temperature;BMP_pressure;BME280_temperature;BME280_humidity;BME280_pressure;Samples;Min_cycle;Max_cycle;Signal;HPM_P1;HPM_P2
2024/02/22 00:01:08;;;;;;;9.70;6.20;;;;;;;-2.54;87.31;95941.77;106919;1275;22776;-71
2024/02/22 00:03:48;;;;;;;7.20;4.40;;;;;;;-2.47;87.30;95939.81;106557;1275;603187;-71
2024/02/22 00:06:17;;;;;;;9.70;6.10;;;;;;;-2.46;87.04;95939.34;106972;1253;22520;-71
2024/02/22 00:08:45;;;;;;;7.60;4.80;;;;;;;-2.44;87.12;95933.71;106654;1275;24196;-71
2024/02/22 00:11:14;;;;;;;6.90;4.70;;;;;;;-2.47;86.63;95930.51;106589;1275;25402;-71
2024/02/22 00:13:45;;;;;;;6.70;4.70;;;;;;;-2.44;87.01;95931.52;107024;1272;25281;-71
2024/02/22 00:16:15;;;;;;;7.60;4.80;;;;;;;-2.37;87.04;95927.09;106927;1275;22640;-71
2024/02/22 00:18:47;;;;;;;6.40;4.60;;;;;;;-2.32;86.95;95926.73;106731;1275;22544;-71
2024/02/22 00:21:15;;;;;;;5.80;4.10;;;;;;;-2.27;86.91;95922.79;106762;1275;22727;-71
2024/02/22 00:23:43;;;;;;;6.10;4.30;;;;;;;-2.29;86.44;95921.19;106618;1275;25635;-71
2024/02/22 00:26:12;;;;;;;11.80;7.30;;;;;;;-2.38;85.98;95914.48;106867;1275;23122;-71
2024/02/22 00:28:42;;;;;;;7.10;5.20;;;;;;;-2.45;86.01;95909.55;107080;1273;25507;-71
2024/02/22 00:31:11;;;;;;;9.20;6.30;;;;;;;-2.48;86.39;95909.81;106818;1275;26497;-71
2024/02/22 00:33:44;;;;;;;8.90;5.10;;;;;;;-2.48;86.62;95909.30;106652;1275;23876;-71
2024/02/22 00:36:13;;;;;;;8.40;5.30;;;;;;;-2.50;86.32;95907.84;106642;1276;25525;-72
2024/02/22 00:38:43;;;;;;;6.20;4.40;;;;;;;-2.48;86.56;95900.85;106611;1275;22533;-71
2024/02/22 00:41:12;;;;;;;6.20;4.40;;;;;;;-2.49;86.22;95891.15;106608;1275;22525;-71
2024/02/22 00:43:40;;;;;;;6.60;4.30;;;;;;;-2.50;86.42;95893.89;106719;1275;22533;-71
2024/02/22 00:46:10;;;;;;;11.80;6.20;;;;;;;-2.45;86.63;95891.14;106616;1275;23112;-71
2024/02/22 00:48:38;;;;;;;9.70;5.00;;;;;;;-2.42;86.24;95886.23;106719;1275;22530;-71
2024/02/22 00:51:07;;;;;;;11.20;6.50;;;;;;;-2.43;86.07;95882.94;106643;1275;22924;-71
2024/02/22 00:53:35;;;;;;;15.20;7.00;;;;;;;-2.47;85.45;95881.05;106601;1275;24237;-71
2024/02/22 00:56:03;;;;;;;18.40;8.10;;;;;;;-2.54;85.41;95882.20;106645;1275;22536;-71
2024/02/22 00:58:32;;;;;;;6.60;4.80;;;;;;;-2.54;85.68;95881.34;106616;1275;22632;-71
2024/02/22 01:01:01;;;;;;;8.00;5.40;;;;;;;-2.53;86.01;95877.42;106638;1275;25459;-71
2024/02/22 01:03:31;;;;;;;8.40;5.40;;;;;;;-2.54;85.87;95874.10;106630;1275;25446;-71
2024/02/22 01:06:00;;;;;;;5.70;4.30;;;;;;;-2.58;85.46;95874.29;106688;1275;24332;-71
2024/02/22 01:08:28;;;;;;;11.80;5.70;;;;;;;-2.65;85.38;95875.80;106612;1275;24311;-71
2024/02/22 01:10:56;;;;;;;4.80;3.90;;;;;;;-2.70;85.17;95875.75;106635;1275;22635;-71
2024/02/22 01:13:25;;;;;;;6.00;3.50;;;;;;;-2.74;85.30;95873.88;106601;1275;24250;-71
2024/02/22 01:15:53;;;;;;;4.90;3.40;;;;;;;-2.75;85.60;95872.13;106603;1275;22523;-71
2024/02/22 01:18:21;;;;;;;5.90;3.60;;;;;;;-2.74;85.80;95869.41;106657;1275;25601;-71
2024/02/22 01:20:49;;;;;;;5.90;3.40;;;;;;;-2.74;85.67;95863.05;106599;1275;23981;-71
2024/02/22 01:23:18;;;;;;;7.60;4.20;;;;;;;-2.75;85.63;95862.14;106606;1275;24255;-71
2024/02/22 01:25:47;;;;;;;6.40;4.70;;;;;;;-2.76;86.03;95865.39;106531;1275;25261;-71
2024/02/22 01:28:16;;;;;;;7.00;4.80;;;;;;;-2.79;86.00;95862.67;106692;1275;25230;-70
2024/02/22 01:30:44;;;;;;;8.00;4.80;;;;;;;-2.89;86.03;95858.36;106625;1275;22562;-70
2024/02/22 01:33:12;;;;;;;10.00;4.80;;;;;;;-2.98;85.78;95859.08;106647;1275;22510;-71
2024/02/22 01:35:41;;;;;;;17.20;6.60;;;;;;;-3.08;85.47;95851.82;106645;1275;22527;-70
2024/02/22 01:38:09;;;;;;;14.30;6.70;;;;;;;-3.14;86.32;95851.24;106679;1275;23636;-70
2024/02/22 01:40:38;;;;;;;11.20;5.60;;;;;;;-3.20;86.10;95846.88;106641;1275;22641;-70
2024/02/22 01:43:07;;;;;;;7.70;4.80;;;;;;;-3.20;86.16;95840.53;106584;1275;25347;-70
2024/02/22 01:45:36;;;;;;;7.30;4.60;;;;;;;-3.18;86.28;95837.52;106649;1275;25239;-70
2024/02/22 01:48:05;;;;;;;8.40;5.20;;;;;;;-3.14;86.57;95836.45;106709;1275;24358;-70
2024/02/22 01:50:35;;;;;;;8.00;4.20;;;;;;;-3.11;86.58;95832.45;106670;1275;24208;-70
2024/02/22 01:53:05;;;;;;;8.40;4.30;;;;;;;-3.09;86.40;95822.52;106660;1275;22816;-70
2024/02/22 01:55:34;;;;;;;6.50;3.80;;;;;;;-3.07;86.35;95819.16;106659;1275;22593;-70
2024/02/22 01:58:04;;;;;;;7.60;4.30;;;;;;;-3.09;86.39;95812.36;106654;1275;24923;-70
2024/02/22 02:00:33;;;;;;;7.40;5.10;;;;;;;-3.13;86.56;95803.98;106764;1275;22723;-70
2024/02/22 02:03:02;;;;;;;13.10;6.10;;;;;;;-3.17;86.66;95806.39;106807;1265;24043;-70
2024/02/22 02:05:31;;;;;;;9.40;5.70;;;;;;;-3.26;86.32;95800.23;106648;1275;25308;-70
2024/02/22 02:08:02;;;;;;;7.50;5.20;;;;;;;-3.30;86.58;95799.90;106689;1253;22604;-71
2024/02/22 02:10:31;;;;;;;6.40;4.60;;;;;;;-3.31;87.43;95797.09;106694;1275;24245;-70
2024/02/22 02:13:03;;;;;;;11.60;6.00;;;;;;;-3.33;87.50;95797.21;106631;1275;25272;-70
2024/02/22 02:15:34;;;;;;;25.10;9.10;;;;;;;-3.33;87.21;95795.47;107017;1275;25406;-71
2024/02/22 02:18:03;;;;;;;14.80;7.20;;;;;;;-3.33;87.24;95792.23;106610;1275;25095;-71
2024/02/22 02:20:55;;;;;;;12.00;6.70;;;;;;;-3.31;87.65;95788.50;106715;1275;22562;-70
2024/02/22 02:23:58;;;;;;;10.40;6.40;;;;;;;-3.29;87.56;95781.88;106672;1275;22546;-70
2024/02/22 02:26:26;;;;;;;13.70;7.20;;;;;;;-3.26;87.89;95770.97;106645;1275;25419;-71
2024/02/22 02:28:55;;;;;;;17.30;7.40;;;;;;;-3.23;87.83;95767.98;106745;1275;25315;-71
2024/02/22 02:31:23;;;;;;;22.80;9.10;;;;;;;-3.21;87.73;95767.35;106602;1275;22531;-71
2024/02/22 02:33:51;;;;;;;24.90;10.50;;;;;;;-3.18;87.77;95765.42;106611;1275;22632;-71
2024/02/22 02:36:19;;;;;;;32.90;12.50;;;;;;;-3.14;87.40;95760.73;106682;1275;25502;-71
2024/02/22 02:38:47;;;;;;;33.60;13.30;;;;;;;-3.11;87.52;95762.05;106611;1275;23957;-71
2024/02/22 02:41:16;;;;;;;30.00;12.50;;;;;;;-3.06;87.24;95757.07;106624;1275;22520;-71
2024/02/22 02:43:44;;;;;;;36.10;12.40;;;;;;;-3.13;86.59;95753.22;106918;1275;22656;-71
2024/02/22 02:46:12;;;;;;;23.30;9.50;;;;;;;-3.13;87.15;95757.34;106588;1276;25372;-71
2024/02/22 02:48:41;;;;;;;9.30;4.70;;;;;;;-3.10;86.90;95752.98;106697;1275;22967;-71
2024/02/22 02:51:09;;;;;;;9.60;4.40;;;;;;;-3.08;87.14;95750.48;106695;1275;22630;-71
2024/02/22 02:53:37;;;;;;;6.00;3.80;;;;;;;-2.97;87.47;95750.34;106884;1275;22555;-71
2024/02/22 02:56:06;;;;;;;7.60;4.60;;;;;;;-2.92;87.24;95749.81;106884;1275;24418;-70
2024/02/22 02:58:34;;;;;;;11.80;5.40;;;;;;;-2.91;87.04;95747.11;106681;1275;24328;-71
2024/02/22 03:01:05;;;;;;;5.10;3.70;;;;;;;-2.92;86.72;95749.48;106707;1275;24388;-71
2024/02/22 03:03:34;;;;;;;12.90;6.20;;;;;;;-2.89;87.00;95748.73;107029;1275;25226;-71
2024/02/22 03:06:02;;;;;;;16.50;6.90;;;;;;;-2.88;86.48;95742.90;106747;1275;23214;-71
2024/02/22 03:08:31;;;;;;;7.40;4.30;;;;;;;-2.87;85.91;95741.91;106698;1275;25476;-71
2024/02/22 03:10:59;;;;;;;5.60;3.60;;;;;;;-2.84;86.55;95742.04;106892;1275;24350;-70
2024/02/22 03:13:27;;;;;;;5.30;3.20;;;;;;;-2.76;87.04;95741.25;106616;1275;24276;-71
2024/02/22 03:15:56;;;;;;;7.10;4.20;;;;;;;-2.68;86.88;95738.94;106585;1275;25275;-71
2024/02/22 03:18:25;;;;;;;7.40;4.20;;;;;;;-2.73;86.07;95735.00;106695;1275;22524;-71
2024/02/22 03:20:54;;;;;;;6.60;3.70;;;;;;;-2.81;85.77;95735.58;106693;1276;24274;-71
2024/02/22 03:23:23;;;;;;;5.40;2.80;;;;;;;-2.87;85.84;95732.64;106618;1275;22696;-70
2024/02/22 03:25:51;;;;;;;4.60;2.60;;;;;;;-2.90;85.91;95729.77;106620;1276;23923;-70
2024/02/22 03:28:21;;;;;;;3.30;2.40;;;;;;;-2.91;85.97;95730.40;106604;1275;24382;-71
2024/02/22 03:30:52;;;;;;;3.10;2.20;;;;;;;-2.91;86.15;95732.63;106651;1275;22605;-71
2024/02/22 03:33:20;;;;;;;3.80;2.70;;;;;;;-2.96;85.90;95730.90;106698;1275;24333;-71
2024/02/22 03:35:49;;;;;;;4.10;2.80;;;;;;;-2.99;85.95;95730.65;106698;1276;22688;-71
2024/02/22 03:38:19;;;;;;;3.40;2.60;;;;;;;-3.00;86.16;95734.91;106731;1275;25343;-71
2024/02/22 03:40:47;;;;;;;4.10;2.70;;;;;;;-3.03;86.21;95732.89;106687;1275;25297;-71
2024/02/22 03:43:16;;;;;;;6.40;3.10;;;;;;;-3.07;86.02;95730.35;106650;1275;22636;-71
2024/02/22 03:45:45;;;;;;;16.30;7.10;;;;;;;-3.12;86.16;95731.59;106650;1275;25474;-71
2024/02/22 03:48:13;;;;;;;15.70;6.50;;;;;;;-3.18;85.81;95734.95;106610;1275;25963;-71
2024/02/22 03:50:43;;;;;;;24.90;9.10;;;;;;;-3.28;86.03;95735.98;106731;1275;22549;-70
2024/02/22 03:53:12;;;;;;;37.50;16.70;;;;;;;-3.34;86.15;95734.74;106908;1263;22528;-70
2024/02/22 03:55:41;;;;;;;25.90;9.50;;;;;;;-3.38;86.33;95736.13;106940;1275;24520;-70
2024/02/22 03:58:10;;;;;;;3.40;2.40;;;;;;;-3.42;86.24;95732.71;106699;1275;25243;-70
2024/02/22 04:00:38;;;;;;;3.70;2.10;;;;;;;-3.39;86.42;95735.40;106758;1275;22519;-70
2024/02/22 04:03:06;;;;;;;2.80;2.20;;;;;;;-3.38;86.91;95733.05;106731;1274;22535;-70
2024/02/22 04:05:35;;;;;;;2.30;2.00;;;;;;;-3.38;86.72;95734.73;106662;1267;25318;-70
2024/02/22 04:08:04;;;;;;;3.40;1.80;;;;;;;-3.36;86.84;95731.38;106803;1275;22760;-70
2024/02/22 04:10:32;;;;;;;2.70;1.90;;;;;;;-3.36;86.84;95724.16;106762;1275;22519;-70
2024/02/22 04:13:01;;;;;;;3.20;2.20;;;;;;;-3.34;87.04;95718.54;106682;1275;25312;-70
2024/02/22 04:15:29;;;;;;;3.60;2.40;;;;;;;-3.34;86.76;95716.84;106754;1274;24252;-70
2024/02/22 04:17:58;;;;;;;4.30;2.20;;;;;;;-3.35;87.40;95722.13;106617;1275;22524;-70
2024/02/22 04:20:26;;;;;;;3.30;2.20;;;;;;;-3.37;87.20;95718.26;106781;1275;25337;-70
2024/02/22 04:22:55;;;;;;;3.10;2.10;;;;;;;-3.37;87.07;95714.50;106636;1275;25274;-70
2024/02/22 04:25:23;;;;;;;12.20;5.00;;;;;;;-3.39;87.23;95712.36;106735;1275;24212;-70
2024/02/22 04:27:52;;;;;;;7.90;4.00;;;;;;;-3.42;86.95;95710.69;106806;1275;24244;-70
2024/02/22 04:30:20;;;;;;;6.70;3.80;;;;;;;-3.43;87.14;95707.55;106730;1275;25599;-70
2024/02/22 04:32:48;;;;;;;5.90;3.60;;;;;;;-3.40;87.24;95707.15;106726;1257;22636;-70
2024/02/22 04:35:16;;;;;;;4.40;3.20;;;;;;;-3.33;87.64;95705.52;106821;1275;24243;-70
2024/02/22 04:37:45;;;;;;;4.40;3.40;;;;;;;-3.26;87.67;95697.00;106634;1275;25447;-70
2024/02/22 04:40:13;;;;;;;3.90;2.90;;;;;;;-3.17;87.76;95697.64;106713;1275;22530;-70
2024/02/22 04:42:42;;;;;;;3.90;2.50;;;;;;;-3.11;87.65;95699.95;106834;1275;25271;-70
2024/02/22 04:45:10;;;;;;;13.40;5.70;;;;;;;-3.03;87.85;95696.58;106592;1275;25318;-70
2024/02/22 04:47:38;;;;;;;33.30;12.80;;;;;;;-3.06;87.02;95693.75;106636;1275;22537;-70
2024/02/22 04:50:08;;;;;;;26.00;11.50;;;;;;;-3.14;86.47;95695.88;106756;1276;24164;-70
2024/02/22 04:52:37;;;;;;;25.50;11.20;;;;;;;-3.22;86.28;95693.70;106822;1275;22535;-70
2024/02/22 04:55:07;;;;;;;10.00;3.90;;;;;;;-3.19;87.11;95691.91;106721;1275;24308;-70
2024/02/22 04:57:35;;;;;;;3.90;2.60;;;;;;;-3.09;87.58;95695.71;106968;1276;24177;-70
2024/02/22 05:00:05;;;;;;;6.10;2.70;;;;;;;-2.94;88.27;95695.20;106753;1275;22771;-70
2024/02/22 05:02:34;;;;;;;18.80;9.40;;;;;;;-2.90;87.44;95694.15;106687;1275;22527;-70
2024/02/22 05:05:03;;;;;;;20.40;10.20;;;;;;;-2.97;86.02;95694.21;106843;1275;24248;-70
2024/02/22 05:07:33;;;;;;;74.10;28.80;;;;;;;-3.10;85.53;95696.36;107024;1275;25435;-70
2024/02/22 05:10:03;;;;;;;66.00;25.60;;;;;;;-3.13;86.39;95695.23;106729;1275;24364;-70
2024/02/22 05:12:31;;;;;;;39.50;16.90;;;;;;;-3.06;86.80;95691.49;106651;1275;22548;-70
2024/02/22 05:14:59;;;;;;;29.10;13.40;;;;;;;-3.03;86.55;95698.84;106604;1275;23096;-71
2024/02/22 05:17:28;;;;;;;32.40;17.20;;;;;;;-2.95;86.85;95703.40;106868;1275;22529;-70
2024/02/22 05:19:57;;;;;;;10.70;6.50;;;;;;;-2.91;85.98;95706.81;106992;1275;25508;-70
2024/02/22 05:22:25;;;;;;;26.90;13.90;;;;;;;-2.97;85.70;95711.96;107051;1275;22765;-70
2024/02/22 05:24:55;;;;;;;9.10;5.00;;;;;;;-3.02;85.66;95712.13;106754;1275;22828;-70
2024/02/22 05:27:23;;;;;;;3.40;2.10;;;;;;;-3.09;85.63;95714.29;106588;1275;24163;-70
2024/02/22 05:29:52;;;;;;;46.60;17.90;;;;;;;-3.18;86.01;95714.31;106661;1275;25290;-70
2024/02/22 05:32:20;;;;;;;151.20;48.80;;;;;;;-3.27;85.56;95725.18;106821;1275;22527;-70
2024/02/22 05:34:48;;;;;;;140.50;47.00;;;;;;;-3.38;85.69;95725.63;106989;1275;25385;-70
2024/02/22 05:37:17;;;;;;;75.70;27.30;;;;;;;-3.44;86.06;95725.91;106797;1275;25334;-70
2024/02/22 05:39:45;;;;;;;22.40;9.30;;;;;;;-3.47;85.99;95732.18;106902;1273;25405;-70
2024/02/22 05:42:13;;;;;;;3.70;2.00;;;;;;;-3.44;86.48;95729.37;106657;1275;22531;-70
2024/02/22 05:44:41;;;;;;;4.30;2.00;;;;;;;-3.40;86.58;95731.56;106655;1275;24041;-70
2024/02/22 05:47:10;;;;;;;2.60;1.80;;;;;;;-3.37;86.58;95732.56;106635;1275;25410;-70
2024/02/22 05:49:38;;;;;;;35.70;14.30;;;;;;;-3.37;86.47;95726.89;106642;1275;24063;-70
2024/02/22 05:52:07;;;;;;;50.80;17.20;;;;;;;-3.36;86.92;95733.95;106996;1275;25355;-70
2024/02/22 05:54:35;;;;;;;61.00;24.50;;;;;;;-3.37;86.91;95731.19;106885;1275;24380;-70
2024/02/22 05:57:03;;;;;;;67.40;28.50;;;;;;;-3.39;86.76;95730.07;106988;1275;25490;-70
2024/02/22 05:59:31;;;;;;;64.20;26.30;;;;;;;-3.40;86.76;95730.70;106789;1275;24240;-70
2024/02/22 06:02:00;;;;;;;52.80;22.30;;;;;;;-3.39;86.89;95729.38;106630;1275;22643;-70
2024/02/22 06:04:29;;;;;;;65.70;24.30;;;;;;;-3.36;87.20;95721.91;106879;1275;22531;-70
2024/02/22 06:06:57;;;;;;;110.60;35.70;;;;;;;-3.33;87.54;95719.60;107033;1275;23915;-70
2024/02/22 06:09:26;;;;;;;255.90;75.10;;;;;;;-3.30;87.53;95723.35;106984;1275;25389;-70
2024/02/22 06:11:55;;;;;;;91.50;36.50;;;;;;;-3.25;87.56;95721.28;106796;1275;24249;-70
2024/02/22 06:14:23;;;;;;;56.70;26.80;;;;;;;-3.18;87.61;95719.46;106891;1275;22669;-70
2024/02/22 06:16:51;;;;;;;40.50;22.60;;;;;;;-3.11;87.75;95709.91;106832;1275;22551;-70
2024/02/22 06:19:20;;;;;;;52.20;24.40;;;;;;;-3.04;87.85;95707.91;106621;1275;25361;-70
2024/02/22 06:21:48;;;;;;;49.00;24.40;;;;;;;-2.95;88.05;95707.70;106810;1275;25271;-70
2024/02/22 06:24:17;;;;;;;47.60;24.80;;;;;;;-2.86;88.04;95705.96;106944;1275;22644;-70
2024/02/22 06:26:45;;;;;;;49.40;24.90;;;;;;;-2.77;88.05;95708.35;107018;1275;22523;-70
2024/02/22 06:29:13;;;;;;;52.90;27.60;;;;;;;-2.67;87.97;95702.99;106809;1275;22625;-70
2024/02/22 06:31:42;;;;;;;33.40;19.20;;;;;;;-2.56;87.87;95703.34;106713;1275;24240;-70
2024/02/22 06:34:10;;;;;;;25.60;14.60;;;;;;;-2.45;87.88;95706.48;106668;1275;25245;-70
2024/02/22 06:36:38;;;;;;;19.10;10.00;;;;;;;-2.36;87.73;95708.33;106629;1275;25312;-70
2024/02/22 06:39:08;;;;;;;24.10;12.60;;;;;;;-2.25;87.86;95700.05;106732;1275;25401;-71
2024/02/22 06:41:37;;;;;;;21.20;10.80;;;;;;;-2.16;88.19;95697.60;107067;1275;24070;-71
2024/02/22 06:44:05;;;;;;;24.60;11.80;;;;;;;-2.09;88.00;95690.40;106785;1275;24203;-71
2024/02/22 06:46:33;;;;;;;26.90;16.00;;;;;;;-1.97;88.35;95685.94;106759;1275;23153;-71
2024/02/22 06:49:02;;;;;;;28.10;16.50;;;;;;;-1.89;88.45;95676.73;106980;1275;25407;-71
2024/02/22 06:51:30;;;;;;;28.70;15.90;;;;;;;-1.80;88.45;95673.73;106641;1275;22524;-71
2024/02/22 06:53:59;;;;;;;18.00;9.70;;;;;;;-1.67;88.34;95665.63;106560;1275;25226;-71
2024/02/22 06:56:27;;;;;;;20.30;10.70;;;;;;;-1.59;88.17;95662.43;106650;1275;24063;-71
2024/02/22 06:58:55;;;;;;;22.20;12.00;;;;;;;-1.49;88.06;95657.86;106667;1275;22521;-71
2024/02/22 07:01:24;;;;;;;27.30;14.90;;;;;;;-1.33;88.44;95657.46;107021;1275;22534;-71
2024/02/22 07:03:52;;;;;;;22.00;12.10;;;;;;;-1.14;88.66;95653.16;106767;1275;25382;-71
2024/02/22 07:06:21;;;;;;;33.00;16.70;;;;;;;-0.98;88.28;95652.39;106624;1275;22529;-71
2024/02/22 07:08:49;;;;;;;21.90;13.30;;;;;;;-0.80;88.46;95648.86;106544;1254;22641;-71
2024/02/22 07:11:18;;;;;;;29.50;15.50;;;;;;;-0.65;88.02;95647.02;106625;1275;22523;-71
2024/02/22 07:13:46;;;;;;;20.30;9.80;;;;;;;-0.49;88.12;95646.73;106613;1275;22658;-71
2024/02/22 07:16:14;;;;;;;14.80;8.20;;;;;;;-0.27;87.20;95641.20;106677;1275;25305;-71
2024/02/22 07:18:42;;;;;;;22.20;11.40;;;;;;;-0.08;86.87;95642.15;106797;1275;22614;-71
2024/02/22 07:21:11;;;;;;;17.40;8.40;;;;;;;0.07;86.94;95637.65;106731;1275;22649;-71
2024/02/22 07:23:39;;;;;;;22.90;11.00;;;;;;;0.31;87.25;95630.21;106797;1275;22520;-71
2024/02/22 07:26:09;;;;;;;24.80;11.90;;;;;;;0.52;86.77;95625.48;106864;1275;22785;-71
2024/02/22 07:28:39;;;;;;;27.40;13.60;;;;;;;0.63;86.04;95626.02;106852;1276;22557;-71
2024/02/22 07:31:07;;;;;;;20.50;11.20;;;;;;;0.75;86.24;95622.61;107016;1275;22580;-71
2024/02/22 07:33:35;;;;;;;18.70;9.60;;;;;;;0.90;86.52;95618.75;106757;1276;25402;-71
2024/02/22 07:36:05;;;;;;;18.80;10.20;;;;;;;1.05;86.43;95616.45;106626;1275;22642;-71
2024/02/22 07:38:36;;;;;;;16.20;8.70;;;;;;;1.09;85.38;95613.58;106641;1275;22527;-73
2024/02/22 07:41:07;;;;;;;12.20;6.70;;;;;;;1.16;85.69;95609.02;106619;1275;22738;-72
2024/02/22 07:43:36;;;;;;;17.10;8.40;;;;;;;1.37;86.39;95608.17;106671;1266;23139;-74
2024/02/22 07:46:05;;;;;;;18.00;7.50;;;;;;;1.58;86.39;95608.70;106642;1275;25325;-72
2024/02/22 07:48:33;;;;;;;13.20;6.80;;;;;;;1.79;85.50;95611.09;106609;1275;25307;-72
2024/02/22 07:51:02;;;;;;;16.10;8.20;;;;;;;1.93;83.15;95610.80;106779;1276;25340;-72
2024/02/22 07:53:33;;;;;;;32.20;12.70;;;;;;;2.02;82.09;95597.75;106618;1276;25383;-72
2024/02/22 07:56:07;;;;;;;52.10;19.10;;;;;;;2.10;81.71;95589.69;106614;1275;23143;-72
2024/02/22 07:58:51;;;;;;;69.50;23.50;;;;;;;2.22;82.35;95585.86;106638;1275;22622;-72
2024/02/22 08:01:20;;;;;;;68.80;23.00;;;;;;;2.34;81.92;95579.10;106634;1276;22535;-72
2024/02/22 08:03:49;;;;;;;86.40;29.90;;;;;;;2.50;81.09;95574.95;106683;1275;24367;-72
2024/02/22 08:06:18;;;;;;;73.90;29.40;;;;;;;2.67;79.25;95578.79;107055;1276;24187;-72
2024/02/22 08:08:46;;;;;;;65.70;29.60;;;;;;;2.86;80.08;95578.48;106597;1275;24298;-72
2024/02/22 08:11:15;;;;;;;54.10;21.50;;;;;;;3.09;79.12;95574.02;106609;1276;22525;-72
2024/02/22 08:13:45;;;;;;;28.80;12.60;;;;;;;3.30;77.65;95575.61;106686;1276;22558;-72
2024/02/22 08:16:13;;;;;;;14.20;6.30;;;;;;;3.44;77.73;95572.95;106571;1276;25316;-73
2024/02/22 08:18:42;;;;;;;14.20;5.50;;;;;;;3.58;77.65;95570.98;106556;1275;22596;-73
2024/02/22 08:21:10;;;;;;;43.20;17.50;;;;;;;3.69;77.15;95567.24;106642;1276;23984;-72
2024/02/22 08:23:39;;;;;;;42.50;16.70;;;;;;;3.76;75.89;95561.55;106965;1276;25525;-73
2024/02/22 08:26:08;;;;;;;15.90;6.80;;;;;;;3.81;75.85;95560.71;106877;1276;22527;-73
2024/02/22 08:28:36;;;;;;;21.60;6.80;;;;;;;3.88;75.06;95557.63;106777;1276;24255;-73
2024/02/22 08:31:04;;;;;;;35.30;10.40;;;;;;;3.99;74.82;95556.48;106771;1276;24253;-73
2024/02/22 08:33:33;;;;;;;24.60;8.70;;;;;;;4.15;74.32;95554.14;106839;1275;25287;-73
2024/02/22 08:36:01;;;;;;;47.30;13.30;;;;;;;4.35;73.84;95553.71;106756;1275;24259;-73
2024/02/22 08:38:29;;;;;;;49.20;20.70;;;;;;;4.55;73.32;95549.29;106587;1276;25381;-73
2024/02/22 08:40:58;;;;;;;32.20;10.40;;;;;;;4.82;73.37;95540.66;106648;1275;24228;-73
2024/02/22 08:43:26;;;;;;;3.80;2.50;;;;;;;5.05;71.77;95537.21;106624;1275;26545;-73
2024/02/22 08:45:54;;;;;;;4.10;2.20;;;;;;;5.16;71.02;95530.27;106593;1276;23235;-73
2024/02/22 08:48:23;;;;;;;4.50;2.00;;;;;;;5.36;72.36;95522.79;106692;1275;22722;-73
2024/02/22 08:50:53;;;;;;;5.70;2.20;;;;;;;5.54;72.65;95514.58;106606;1276;22528;-73
2024/02/22 08:53:22;;;;;;;4.30;1.80;;;;;;;5.72;70.15;95517.70;106608;1276;25287;-73
2024/02/22 08:55:50;;;;;;;3.70;2.20;;;;;;;5.92;69.67;95509.49;106642;1276;22552;-73
2024/02/22 08:58:19;;;;;;;3.10;2.10;;;;;;;6.11;70.15;95509.11;106588;1276;25339;-73
2024/02/22 09:00:47;;;;;;;3.10;1.80;;;;;;;6.29;70.16;95510.80;106638;1275;25389;-73
2024/02/22 09:03:15;;;;;;;4.20;1.80;;;;;;;6.45;70.11;95506.55;106668;1276;22643;-73
2024/02/22 09:05:45;;;;;;;3.10;2.00;;;;;;;6.60;69.32;95501.42;106607;1275;25610;-73
2024/02/22 09:08:16;;;;;;;2.30;1.70;;;;;;;6.73;67.04;95499.95;106748;1276;22525;-73
2024/02/22 09:10:45;;;;;;;4.00;2.10;;;;;;;6.84;68.03;95496.75;106681;1276;24053;-73
2024/02/22 09:13:15;;;;;;;3.70;2.10;;;;;;;6.94;65.79;95498.27;106606;1276;24193;-73
2024/02/22 09:15:49;;;;;;;4.60;2.90;;;;;;;7.07;66.77;95496.79;106644;1276;22795;-73
2024/02/22 09:18:18;;;;;;;6.00;2.80;;;;;;;7.20;65.51;95493.90;106658;1275;22742;-73
2024/02/22 09:20:48;;;;;;;5.50;2.70;;;;;;;7.30;65.44;95488.56;106511;1275;23919;-73
2024/02/22 09:23:17;;;;;;;4.50;2.80;;;;;;;7.41;65.94;95486.39;106692;1276;24397;-73
2024/02/22 09:25:46;;;;;;;17.50;9.20;;;;;;;7.52;64.99;95484.91;106669;1276;25243;-73
2024/02/22 09:28:15;;;;;;;9.60;6.20;;;;;;;7.64;64.56;95477.62;106720;1261;22735;-73
2024/02/22 09:30:45;;;;;;;9.80;5.70;;;;;;;7.81;66.07;95476.05;106763;1276;22535;-73
2024/02/22 09:33:13;;;;;;;4.80;3.80;;;;;;;7.99;65.13;95470.27;106609;1276;23006;-73
2024/02/22 09:35:44;;;;;;;10.10;3.50;;;;;;;8.11;64.22;95473.83;106736;1276;24296;-73
2024/02/22 09:38:12;;;;;;;8.80;4.50;;;;;;;8.20;64.81;95471.96;106704;1276;22532;-73
2024/02/22 09:40:41;;;;;;;9.40;5.10;;;;;;;8.33;63.96;95469.54;106645;1275;25284;-72
2024/02/22 09:43:09;;;;;;;42.90;19.80;;;;;;;8.39;62.89;95459.67;106698;1276;25265;-73
2024/02/22 09:45:38;;;;;;;33.60;18.30;;;;;;;8.48;62.76;95458.52;106935;1276;22650;-73
2024/02/22 09:48:07;;;;;;;15.20;7.70;;;;;;;8.57;61.87;95450.52;106820;1276;22704;-73
2024/02/22 09:50:37;;;;;;;45.40;22.10;;;;;;;8.68;61.12;95449.33;106704;1275;25377;-73
2024/02/22 09:53:06;;;;;;;5.30;3.40;;;;;;;8.80;59.84;95440.74;106638;1275;22535;-73
2024/02/22 09:55:35;;;;;;;5.20;2.70;;;;;;;8.88;59.88;95436.24;106631;1275;22593;-73
2024/02/22 09:58:04;;;;;;;55.50;21.30;;;;;;;8.95;58.03;95429.64;106731;1275;22538;-73
2024/02/22 10:00:33;;;;;;;47.60;18.80;;;;;;;9.00;57.53;95424.83;106990;1275;22524;-73
2024/02/22 10:03:02;;;;;;;12.40;4.20;;;;;;;9.11;57.79;95417.46;106729;1275;22528;-73
2024/02/22 10:05:37;;;;;;;3.60;2.20;;;;;;;9.19;57.34;95416.11;106627;1275;22541;-73
2024/02/22 10:08:17;;;;;;;6.40;2.70;;;;;;;9.34;57.67;95410.42;106706;1275;23910;-73
2024/02/22 10:10:47;;;;;;;2.60;2.30;;;;;;;9.51;56.49;95411.88;106674;1275;25464;-73
2024/02/22 10:13:22;;;;;;;2.50;1.70;;;;;;;9.57;55.36;95408.28;106717;1275;23891;-73
2024/02/22 10:15:51;;;;;;;3.50;2.10;;;;;;;9.64;54.67;95404.64;106563;1275;22527;-73
2024/02/22 10:18:27;;;;;;;4.00;2.10;;;;;;;9.79;55.49;95399.45;106683;1275;22544;-73
2024/02/22 10:20:56;;;;;;;4.20;2.40;;;;;;;9.89;52.39;95389.94;106663;1275;22635;-73
2024/02/22 10:23:24;;;;;;;8.00;2.20;;;;;;;10.01;53.58;95387.26;106657;1275;23894;-73
2024/02/22 10:26:02;;;;;;;2.50;2.00;;;;;;;10.10;54.24;95385.85;106642;1275;24288;-73
2024/02/22 10:28:31;;;;;;;64.00;28.30;;;;;;;10.15;53.02;95376.62;106647;1275;25478;-73
2024/02/22 10:31:03;;;;;;;19.00;10.30;;;;;;;10.22;53.95;95374.00;106605;1275;22626;-73
2024/02/22 10:33:33;;;;;;;40.70;14.70;;;;;;;10.39;53.97;95369.98;106696;1275;26500;-71
2024/02/22 10:36:01;;;;;;;5.80;2.60;;;;;;;10.57;53.30;95356.95;106625;1275;25364;-71
2024/02/22 10:38:30;;;;;;;6.70;3.80;;;;;;;10.74;52.51;95350.21;106668;1275;22656;-71
2024/02/22 10:41:01;;;;;;;4.10;2.90;;;;;;;10.91;50.84;95347.52;106669;1275;22544;-71
2024/02/22 10:43:30;;;;;;;4.80;2.90;;;;;;;11.06;51.10;95345.22;106637;1275;22582;-72
2024/02/22 10:46:02;;;;;;;3.40;2.60;;;;;;;11.19;49.56;95336.28;106648;1275;22521;-71
2024/02/22 10:48:36;;;;;;;4.50;2.90;;;;;;;11.32;49.65;95332.25;106631;1275;25278;-72
2024/02/22 10:51:06;;;;;;;5.20;2.80;;;;;;;11.37;49.23;95332.66;106646;1275;22568;-72
2024/02/22 10:53:37;;;;;;;6.30;3.50;;;;;;;11.44;50.28;95334.05;106777;1275;22524;-72
2024/02/22 10:56:06;;;;;;;4.10;2.80;;;;;;;11.47;49.77;95329.40;106681;1263;23887;-72
2024/02/22 10:58:38;;;;;;;14.20;3.20;;;;;;;11.50;49.52;95327.41;106661;1275;22526;-72
2024/02/22 11:01:10;;;;;;;5.30;3.10;;;;;;;11.54;49.83;95323.06;106827;1275;22518;-72
2024/02/22 11:03:39;;;;;;;4.50;2.80;;;;;;;11.65;49.71;95318.52;106618;1275;25261;-72
2024/02/22 11:06:08;;;;;;;33.30;19.70;;;;;;;11.90;50.37;95313.13;106606;1275;22585;-72
2024/02/22 11:08:46;;;;;;;36.30;22.90;;;;;;;12.08;48.17;95301.48;106730;1275;24433;-72
2024/02/22 11:11:30;;;;;;;20.30;11.80;;;;;;;12.33;48.34;95296.88;106652;1275;25220;-72
2024/02/22 11:14:01;;;;;;;4.00;2.70;;;;;;;12.74;46.66;95287.83;106580;1275;22653;-72
2024/02/22 11:16:40;;;;;;;8.70;3.20;;;;;;;13.17;47.78;95282.92;106710;1275;24304;-72
2024/02/22 11:26:58;;;;;;;6.20;3.20;;;;;;;14.38;44.94;95261.59;103619;1313;545325;-72
2024/02/22 11:29:29;;;;;;;4.80;3.20;;;;;;;14.45;43.22;95257.96;105993;1289;25519;-72
2024/02/22 11:32:01;;;;;;;7.50;2.80;;;;;;;14.47;43.14;95257.15;105900;1289;25323;-72
2024/02/22 11:34:31;;;;;;;5.50;4.80;;;;;;;14.35;41.84;95253.05;105917;1289;25366;-72
2024/02/22 11:37:19;;;;;;;16.50;10.30;;;;;;;14.23;41.77;95248.72;105810;1289;22546;-73
2024/02/22 11:39:58;;;;;;;3.10;2.50;;;;;;;14.08;43.23;95250.34;105343;1286;699144;-72